logo
App data

Soldiers: Heroes of World War II

The player can take control of American, British, Russian, or German forces to play out battles that are set in World War II. The game is primarily a strategy game, but the player can take control of his or her forces and direct them with the keyboard and mouse for additional depth of control.
Store | Hub | SteamDB | Site
Developer: Best Way Publisher: 1C Company
Genre: Strategy
Languages: English, French, German, Italian, Spanish, Russian
Tags: Strategy (41), World War II (17), RTS (11)
Category: Single-player, Multi-player, Co-op
Release date: Jul 3, 2014
Price: $4.99
Score rank: 47% Userscore: 79% Old userscore: 81% Metascore: 77%
Owners: 100,000 .. 200,000
Followers: 1,347
Peak concurrent players yesterday: 16
Playtime total: 03:09 (average) 00:45 (median)

Steam Spy is still in beta, so expect major bugs.

Owners data:

Access restricted.

This feature is only available to users with special access rights. Sorry.

If you want to proceed, you need to register or log in first and then back Steam Spy on Patreon. Look for Indie or Pro pledge.

Don't forget to use the same email as on Steam Spy!

Audience in 2 weeks:

Access restricted.

This feature is only available to users with special access rights. Sorry.

If you want to proceed, you need to register or log in first and then back Steam Spy on Patreon. Look for Indie or Pro pledge.

Don't forget to use the same email as on Steam Spy!

Peak daily concurrent players:

CCU data courtesy of SteamDB. Used with permission.

Hourly concurrent players:

Daily Twitch stats:

Hourly Twitch stats:

YouTube:

The views data is based on top 50 videos uploaded last week. Actual number of views might be more than the number shown.

The displayed number of videos uploaded yesterday is limited to 50, so if there were more videos uploaded, the number will still show 50.

If the game has commonly used word as its name (like "FEAR" or "Volume") its number of Youtube views might be wrong.

Games similar to this one:

# Game Release date
Price
Score rank
(Userscore / Metascore)
Owners
Players
Playtime (Median)
1 Hostile Waters: Antaeus Rising Jan 30, 2014 $2.9997% (97%/80%)100,000 .. 200,0000%00:00 (00:00)
2 War of the Human Tanks - ALTeR Feb 13, 2015 $12.9992% (95%)0 .. 20,0000%00:00 (00:00)
3 Frost Jul 5, 2016 $6.9992% (95%)0 .. 20,0000%00:00 (00:00)
4 Decisive Campaigns: Barbarossa Apr 29, 2016 $49.99N/A (N/A)0 .. 20,0000%00:00 (00:00)
5 Templar Battleforce Sep 21, 2015 $4.9990% (94%)20,000 .. 50,0000%00:00 (00:00)
6 Garden Rescue Feb 2, 2015 $3.99N/A (N/A)100,000 .. 200,0000.67%03:42 (03:41)
7 Zeus + Poseidon Dec 15, 2016 $4.9983% (92%)20,000 .. 50,0000%00:00 (00:00)
8 Gary Grigsby's War in the East Jul 9, 2015 $79.9983% (92%)0 .. 20,0000%00:00 (00:00)
9 Darknet Jun 8, 2017 $14.9983% (92%)0 .. 20,0000%00:00 (00:00)
10 Children of a Dead Earth Sep 23, 2016 $24.9979% (91%)0 .. 20,0000%00:00 (00:00)
11 Battle Academy 2: Eastern Front Sep 12, 2014 $39.9979% (91%/78%)0 .. 20,00011.11%02:51 (00:57)
12 Kohan: Ahriman's Gift Aug 24, 2011 $9.99N/A (N/A/79%)0 .. 20,0000%00:00 (00:00)
13 Kittypocalypse Aug 15, 2016 $14.9973% (89%)0 .. 20,0000%00:00 (00:00)
14 Viking Saga: New World Nov 5, 2015 $3.99N/A (N/A)0 .. 20,0000%00:00 (00:00)
15 Stalingrad Mar 25, 2015 $4.9964% (86%)20,000 .. 50,0000%00:00 (00:00)
16 Star Ruler Sep 20, 2010 $9.9964% (86%)100,000 .. 200,0000%00:00 (00:00)
17 MechoEcho May 18, 2016 $9.99N/A (N/A)0 .. 20,0000%00:00 (00:00)
18 Enemy Mar 17, 2015 $14.9959% (84%)0 .. 20,0000%00:00 (00:00)
19 NOBUNAGA'S AMBITION: Sphere of Influence Sep 1, 2015 $59.9956% (83%/70%)20,000 .. 50,0000%00:00 (00:00)
20 Conflicks - Revolutionary Space Battles Nov 5, 2015 $6.9956% (83%/63%)0 .. 20,0000%00:00 (00:00)
21 Advanced Tactics Gold Aug 15, 2014 $29.9956% (83%)0 .. 20,0000%00:00 (00:00)
22 Zombie Riot May 25, 2017 $19.99N/A (N/A)0 .. 20,0000%00:00 (00:00)
23 Tank Warfare: Tunisia 1943 May 1, 2017 $39.9954% (82%)0 .. 20,0000%00:00 (00:00)
24 Lords of the Realm Dec 3, 2015 $1.99N/A (N/A)0 .. 20,0000%00:00 (00:00)
25 Defense Zone 3 Ultra HD Dec 14, 2016 $2.9947% (79%)0 .. 20,0000%00:00 (00:00)
26 Stellar Monarch Dec 5, 2016 $19.9947% (79%)0 .. 20,0000%00:00 (00:00)
27 War on Folvos Aug 8, 2014 $3.9945% (78%)20,000 .. 50,0000%00:00 (00:00)
28 Hidden Dimensions 3 Oct 12, 2016 FreeN/A (N/A)0 .. 20,0000%00:00 (00:00)
29 Catch Me Jun 11, 2016 $5.9945% (78%)0 .. 20,0000%00:00 (00:00)
30 Tank Battle: 1944 Mar 1, 2016 $9.99N/A (N/A)0 .. 20,0000%00:00 (00:00)
31 Star Hammer: The Vanguard Prophecy Jun 4, 2015 $19.9939% (75%/69%)0 .. 20,0000%00:00 (00:00)
32 NOBUNAGA’S AMBITION: Kakushin with Power Up Kit / 信長の野望・革新 with パワーアップキット Jun 25, 2015 $54.9939% (75%)0 .. 20,0000%00:00 (00:00)
33 Codex of Victory Mar 16, 2017 $14.9936% (73%)0 .. 20,0000%00:00 (00:00)
34 Special Tactics Apr 26, 2016 $4.99N/A (N/A)0 .. 20,0000%00:00 (00:00)
35 Machines At War 3 Jul 23, 2014 $14.99N/A (N/A)0 .. 20,0000%00:00 (00:00)
36 Pick a Hero Jun 9, 2016 $0.99N/A (N/A)0 .. 20,0000%00:00 (00:00)
37 Cheats 4 Hire Jun 25, 2015 $4.99N/A (N/A)0 .. 20,0000%00:00 (00:00)
38 Attack Heroes Apr 27, 2017 $9.9934% (72%)0 .. 20,0000%00:00 (00:00)
39 Rooster Teeth vs. Zombiens Dec 19, 2014 N/A31% (70%)0 .. 20,0000%00:00 (00:00)
40 Little King's Story Aug 5, 2016 $19.9931% (70%/62%)0 .. 20,0000%00:00 (00:00)
41 Mosby's Confederacy Nov 19, 2008 $9.99N/A (N/A)0 .. 20,0000%00:00 (00:00)
42 Winds Of Trade Feb 13, 2017 $14.9929% (69%)0 .. 20,0000%00:00 (00:00)
43 Deadstone Nov 12, 2014 $3.19N/A (N/A)0 .. 20,0000%00:00 (00:00)
44 Warhammer 40,000: Armageddon - Da Orks Aug 18, 2016 $19.99N/A (N/A)0 .. 20,0000%00:00 (00:00)
45 Pure Chess Grandmaster Edition Sep 9, 2016 $15.9926% (67%)0 .. 20,0000%00:00 (00:00)
46 Helldorado Apr 30, 2009 $9.9925% (66%/65%)20,000 .. 50,0000%00:00 (00:00)
47 APT Aug 27, 2015 $14.99N/A (N/A)0 .. 20,0000%00:00 (00:00)
48 NOBUNAGA'S AMBITION: Tendou with Power Up Kit / 信長の野望・天道 with パワーアップキット Jun 25, 2015 $54.99N/A (N/A)0 .. 20,0000%00:00 (00:00)
49 Defect Jul 28, 2016 $14.99N/A (N/A)0 .. 20,0000%00:00 (00:00)
50 Beasts Battle Jun 15, 2016 $1.99N/A (N/A)0 .. 20,0000%00:00 (00:00)
51 Battle of the Bulge Sep 17, 2015 $9.9922% (64%)0 .. 20,0000%00:00 (00:00)
52 Element TD Jan 20, 2017 $0.99N/A (N/A)0 .. 20,0000%00:00 (00:00)
53 Business Tour - Online Multiplayer Board Game Jul 27, 2017 Free20% (62%)1,000,000 .. 2,000,00014.91%03:59 (01:04)
54 Cuban Missile Crisis: Ice Crusade Mar 25, 2015 $4.99N/A (N/A)20,000 .. 50,0000%00:00 (00:00)
55 Freight Tycoon Inc. Apr 3, 2014 $4.9919% (61%)20,000 .. 50,0000%00:00 (00:00)
56 Spice Road Apr 24, 2014 $19.99N/A (N/A)0 .. 20,0000%00:00 (00:00)
57 SunAge: Battle for Elysium Dec 15, 2014 $14.9918% (60%)0 .. 20,0000%00:00 (00:00)
58 Ninja Cats vs Samurai Dogs Feb 21, 2014 $4.99N/A (N/A)0 .. 20,0000%00:00 (00:00)
59 Close Combat - Panthers in the Fog May 14, 2015 $39.9918% (60%)0 .. 20,0000%00:00 (00:00)
60 Steam Squad Jul 28, 2016 $17.9918% (60%)0 .. 20,0000%00:00 (00:00)
61 LA Cops Mar 13, 2015 $3.7417% (59%/45%)20,000 .. 50,0000%00:00 (00:00)
62 Life in Bunker Feb 25, 2016 $15.9916% (58%)0 .. 20,0000%00:00 (00:00)
63 Check vs Mate Aug 16, 2012 $19.9916% (58%/69%)0 .. 20,0000%00:00 (00:00)
64 Aegis of Earth: Protonovus Assault Jul 18, 2016 $19.99N/A (N/A)0 .. 20,0000%00:00 (00:00)
65 reconquest Dec 16, 2016 $4.7913% (55%)0 .. 20,0000%00:00 (00:00)
66 Starlight Tactics Apr 7, 2015 $9.99N/A (N/A)0 .. 20,0000%00:00 (00:00)
67 3D Chess Dec 6, 2016 $9.99N/A (N/A)0 .. 20,0000%00:00 (00:00)
68 Desert Law Mar 25, 2015 $2.99N/A (N/A)20,000 .. 50,0000%00:00 (00:00)
69 Star Traders: 4X Empires Dec 16, 2014 $9.99N/A (N/A)0 .. 20,0000%00:00 (00:00)
70 Chronostorm: Siberian Border Nov 20, 2015 $0.99N/A (N/A)0 .. 20,0000%00:00 (00:00)
71 ZAMB! Biomutant Extermination Jun 20, 2014 $4.99N/A (N/A)0 .. 20,0000%00:00 (00:00)
72 Clockwork Empires Oct 26, 2016 $29.997% (45%/58%)0 .. 20,0000%00:00 (00:00)
73 Zombie Wars: Invasion Jan 14, 2016 $2.99N/A (N/A)0 .. 20,0000%00:00 (00:00)
74 Rulers of Nations Jul 16, 2014 $19.996% (41%/63%)0 .. 20,0000%00:00 (00:00)
75 Cubesis Aug 22, 2014 $4.99N/A (N/A)0 .. 20,0000%00:00 (00:00)
76 Wars of Napoleon May 6, 2016 $39.99N/A (N/A)0 .. 20,0000%00:00 (00:00)
77 Assault Corps 2 Jul 15, 2015 $2.99N/A (N/A)0 .. 20,0000%00:00 (00:00)
78 Sim Junta Aug 18, 2015 $1.994% (35%)0 .. 20,0000%00:00 (00:00)
79 CTU: Counter Terrorism Unit Apr 22, 2016 $4.99N/A (N/A)0 .. 20,0000%00:00 (00:00)
80 Storm over the Pacific Jun 13, 2014 $9.99N/A (N/A)0 .. 20,0000%00:00 (00:00)
81 Power of Defense Aug 4, 2010 $9.99N/A (N/A)0 .. 20,0000%00:00 (00:00)
82 Jurassic Island: The Dinosaur Zoo Nov 23, 2015 $3.991% (3%)0 .. 20,0000%00:00 (00:00)
83 Fray: Reloaded Edition Jun 19, 2012 N/AN/A (N/A/27%)0 .. 20,0000%00:00 (00:00)

Tags over time:

Access restricted.

This feature is only available to users with special access rights. Sorry.

If you want to proceed, you need to register or log in first and then back Steam Spy on Patreon. Look for Indie or Pro pledge.

Don't forget to use the same email as on Steam Spy!

Owners of this game also own:

Access restricted.

This feature is only available to users with special access rights. Sorry.

If you want to proceed, you need to register or log in first and then back Steam Spy on Patreon. Look for Indie or Pro pledge.

Don't forget to use the same email as on Steam Spy!

Playtime distribution:

Access restricted.

This feature is only available to users with special access rights. Sorry.

If you want to proceed, you need to register or log in first and then back Steam Spy on Patreon. Look for Indie or Pro pledge.

Don't forget to use the same email as on Steam Spy!

Playtime (2 weeks):

Access restricted.

This feature is only available to users with special access rights. Sorry.

If you want to proceed, you need to register or log in first and then back Steam Spy on Patreon. Look for Indie or Pro pledge.

Don't forget to use the same email as on Steam Spy!

User reviews:

Login required.

Please register or log in to see this information.